Time;durP1;ratioP1;P1;durP2;ratioP2;P2;SDS_P1;SDS_P2;PMS_P1;PMS_P2;Temp;Humidity;BMP_temperature;BMP_pressure;BME280_temperature;BME280_humidity;BME280_pressure;Samples;Min_cycle;Max_cycle;Signal;HPM_P1;HPM_P2
2022/06/15 00:00:23;;;;;;;;;;;;;;;10.77;53.32;96842.22;6249448;28;19920;-67
2022/06/15 00:03:28;;;;;;;;;;;;;;;10.81;53.15;96845.50;6249477;28;19921;-68
2022/06/15 00:06:30;;;;;;;;;;;;;;;10.82;53.22;96852.47;6249578;28;19928;-68
2022/06/15 00:09:35;;;;;;;;;;;;;;;10.83;53.33;96849.72;6249117;28;19928;-68
2022/06/15 00:12:39;;;;;;;;;;;;;;;10.86;53.01;96848.69;6249371;28;19921;-68
2022/06/15 00:15:41;;;;;;;;;;;;;;;10.92;53.11;96856.16;6249409;28;19928;-67
2022/06/15 00:18:44;;;;;;;;;;;;;;;10.96;53.18;96861.13;6248918;28;20385;-69
2022/06/15 00:21:46;;;;;;;;;;;;;;;11.01;53.04;96868.69;6248822;28;20318;-67
2022/06/15 00:24:49;;;;;;;;;;;;;;;11.05;52.75;96864.94;6248794;28;19921;-67
2022/06/15 00:27:52;;;;;;;;;;;;;;;11.11;53.04;96875.06;6249270;28;19927;-67
2022/06/15 00:30:57;;;;;;;;;;;;;;;11.14;53.26;96880.13;6248880;28;19916;-68
2022/06/15 00:34:00;;;;;;;;;;;;;;;11.17;53.22;96874.63;6248577;28;19925;-67
2022/06/15 00:37:05;;;;;;;;;;;;;;;11.21;52.85;96878.78;6248928;28;19920;-67
2022/06/15 00:40:08;;;;;;;;;;;;;;;11.27;53.07;96881.94;6248611;28;20396;-67
2022/06/15 00:43:13;;;;;;;;;;;;;;;11.30;53.12;96874.66;6247391;28;19921;-68
2022/06/15 00:46:21;;;;;;;;;;;;;;;11.36;52.99;96881.31;6246960;28;20281;-68
2022/06/15 00:49:25;;;;;;;;;;;;;;;11.40;53.03;96883.63;6248861;28;19921;-68
2022/06/15 00:52:33;;;;;;;;;;;;;;;11.45;52.74;96878.03;6248800;28;19967;-68
2022/06/15 00:55:34;;;;;;;;;;;;;;;11.51;52.81;96882.88;6247585;28;19921;-69
2022/06/15 00:58:40;;;;;;;;;;;;;;;11.58;53.00;96886.81;6248302;28;20300;-68
2022/06/15 01:01:47;;;;;;;;;;;;;;;11.66;52.63;96887.13;6246919;28;19921;-68
2022/06/15 01:04:52;;;;;;;;;;;;;;;11.73;52.41;96895.44;6248059;28;19947;-67
2022/06/15 01:08:04;;;;;;;;;;;;;;;11.80;52.85;96893.22;6248375;28;19921;-68
2022/06/15 01:11:19;;;;;;;;;;;;;;;11.93;52.13;96898.53;6247220;28;19928;-67
2022/06/15 01:14:41;;;;;;;;;;;;;;;12.03;52.10;96894.28;6247906;28;19920;-67
2022/06/15 01:18:03;;;;;;;;;;;;;;;12.12;52.03;96894.47;6248212;28;19921;-68
2022/06/15 01:21:33;;;;;;;;;;;;;;;12.23;52.29;96895.50;6246556;28;20392;-67
2022/06/15 01:24:34;;;;;;;;;;;;;;;12.32;51.76;96894.88;6245485;28;19928;-68
2022/06/15 01:27:41;;;;;;;;;;;;;;;12.39;51.79;96898.75;6247527;28;19928;-67
2022/06/15 01:30:50;;;;;;;;;;;;;;;12.48;51.85;96906.00;6247405;28;19924;-67
2022/06/15 01:33:51;;;;;;;;;;;;;;;12.58;51.96;96899.09;6247662;28;20418;-68
2022/06/15 01:37:11;;;;;;;;;;;;;;;12.67;51.87;96904.66;6247136;28;19921;-68
2022/06/15 01:40:17;;;;;;;;;;;;;;;12.75;51.85;96904.94;6247204;28;19954;-68
2022/06/15 01:43:21;;;;;;;;;;;;;;;12.82;51.62;96916.75;6247325;28;20429;-69
2022/06/15 01:46:23;;;;;;;;;;;;;;;12.88;51.63;96911.03;6247417;28;19921;-68
2022/06/15 01:49:29;;;;;;;;;;;;;;;12.97;51.80;96913.00;6246942;28;19928;-68
2022/06/15 01:52:35;;;;;;;;;;;;;;;13.08;51.41;96909.56;6247017;28;19928;-67
2022/06/15 01:55:36;;;;;;;;;;;;;;;13.19;51.53;96919.31;6247660;28;19932;-67
2022/06/15 01:58:40;;;;;;;;;;;;;;;13.29;51.07;96922.97;6247178;28;19944;-67
2022/06/15 02:01:52;;;;;;;;;;;;;;;13.39;50.91;96921.34;6246640;28;19924;-67
2022/06/15 02:05:05;;;;;;;;;;;;;;;13.55;50.76;96922.81;6246633;28;20291;-68
2022/06/15 02:08:22;;;;;;;;;;;;;;;13.67;50.33;96924.50;6246473;28;19921;-67
2022/06/15 02:11:34;;;;;;;;;;;;;;;13.84;50.72;96924.09;6246592;28;19921;-68
2022/06/15 02:14:43;;;;;;;;;;;;;;;13.99;50.26;96929.16;6246361;28;19924;-68
2022/06/15 02:17:49;;;;;;;;;;;;;;;14.13;50.35;96929.75;6246548;28;20906;-67
2022/06/15 02:20:52;;;;;;;;;;;;;;;14.27;50.18;96930.47;6246132;28;19928;-68
2022/06/15 02:24:00;;;;;;;;;;;;;;;14.41;50.60;96934.66;6246199;28;19925;-68
2022/06/15 02:27:08;;;;;;;;;;;;;;;14.52;50.46;96932.91;6246286;28;20368;-68
2022/06/15 02:30:15;;;;;;;;;;;;;;;14.64;50.42;96933.72;6245418;28;19921;-68
2022/06/15 02:33:24;;;;;;;;;;;;;;;14.77;50.53;96929.09;6245984;28;20396;-68
2022/06/15 02:36:25;;;;;;;;;;;;;;;14.90;50.38;96925.47;6246176;28;20036;-68
2022/06/15 02:39:26;;;;;;;;;;;;;;;15.02;50.41;96921.81;6246468;28;20312;-67
2022/06/15 02:42:30;;;;;;;;;;;;;;;15.15;50.36;96927.78;6246347;28;19925;-67
2022/06/15 02:45:35;;;;;;;;;;;;;;;15.30;50.48;96924.84;6245586;28;20410;-67
2022/06/15 02:48:41;;;;;;;;;;;;;;;15.47;50.34;96930.41;6245744;28;20315;-67
2022/06/15 02:52:14;;;;;;;;;;;;;;;15.61;50.42;96926.59;6245624;28;19921;-67
2022/06/15 02:55:19;;;;;;;;;;;;;;;15.89;49.47;96921.63;6244629;28;19925;-68
2022/06/15 02:58:28;;;;;;;;;;;;;;;15.98;48.93;96931.47;6245474;28;19921;-68
2022/06/15 03:01:29;;;;;;;;;;;;;;;16.09;48.24;96926.06;6245898;28;19928;-69
2022/06/15 03:04:30;;;;;;;;;;;;;;;16.19;48.00;96922.59;6246096;28;19956;-68
2022/06/15 03:07:31;;;;;;;;;;;;;;;16.31;47.81;96922.41;6245937;28;19920;-68
2022/06/15 03:10:32;;;;;;;;;;;;;;;16.49;47.43;96925.25;6246019;28;19976;-68
2022/06/15 03:13:34;;;;;;;;;;;;;;;16.61;46.71;96929.47;6245346;28;20381;-68
2022/06/15 03:16:36;;;;;;;;;;;;;;;16.66;46.46;96926.41;6245871;28;19984;-67
2022/06/15 03:19:43;;;;;;;;;;;;;;;16.86;46.30;96922.00;6247759;28;20544;-68
2022/06/15 03:22:44;;;;;;;;;;;;;;;16.90;45.92;96926.09;6250966;28;20008;-68
2022/06/15 03:25:51;;;;;;;;;;;;;;;17.02;45.65;96921.50;6250637;28;19921;-67
2022/06/15 03:28:52;;;;;;;;;;;;;;;17.08;45.80;96925.41;6250862;28;19960;-68
2022/06/15 03:31:56;;;;;;;;;;;;;;;17.22;45.54;96922.34;6250255;28;20394;-68
2022/06/15 03:34:57;;;;;;;;;;;;;;;17.30;45.32;96925.16;6249782;28;20426;-68
2022/06/15 03:38:08;;;;;;;;;;;;;;;17.29;45.29;96928.75;6249992;28;20414;-68
2022/06/15 03:41:13;;;;;;;;;;;;;;;17.38;45.25;96919.09;6249962;28;20010;-68
2022/06/15 03:44:17;;;;;;;;;;;;;;;17.60;45.29;96931.28;6250264;28;20337;-68
2022/06/15 03:47:20;;;;;;;;;;;;;;;17.79;44.85;96927.78;6249693;28;19932;-68
2022/06/15 03:50:23;;;;;;;;;;;;;;;17.88;44.46;96919.75;6249361;28;19921;-68
2022/06/15 03:53:26;;;;;;;;;;;;;;;17.83;44.44;96927.34;6249298;28;20308;-67
2022/06/15 03:56:47;;;;;;;;;;;;;;;17.89;44.46;96916.13;6249328;28;20362;-67
2022/06/15 03:59:48;;;;;;;;;;;;;;;17.95;44.27;96926.22;6249395;28;20308;-67
2022/06/15 04:02:52;;;;;;;;;;;;;;;18.17;44.02;96926.81;6250107;28;19921;-67
2022/06/15 04:05:58;;;;;;;;;;;;;;;18.20;43.92;96929.19;6247530;28;19928;-68
2022/06/15 04:09:01;;;;;;;;;;;;;;;18.33;43.65;96929.72;6248960;28;19928;-67
2022/06/15 04:12:08;;;;;;;;;;;;;;;18.42;43.22;96924.50;6248899;28;19921;-68
2022/06/15 04:15:12;;;;;;;;;;;;;;;18.50;42.88;96924.59;6248976;28;19921;-68
2022/06/15 04:18:16;;;;;;;;;;;;;;;18.61;43.13;96924.41;6248903;28;19921;-69
2022/06/15 04:21:19;;;;;;;;;;;;;;;18.70;42.50;96920.84;6248771;28;19921;-68
2022/06/15 04:24:27;;;;;;;;;;;;;;;18.88;41.88;96922.72;6248776;28;19921;-68
2022/06/15 04:27:32;;;;;;;;;;;;;;;18.95;41.64;96923.81;6248266;28;20390;-67
2022/06/15 04:30:38;;;;;;;;;;;;;;;19.06;41.22;96920.94;6247294;28;19925;-67
2022/06/15 04:33:39;;;;;;;;;;;;;;;19.21;40.81;96914.06;6247267;28;20296;-68
2022/06/15 04:36:44;;;;;;;;;;;;;;;19.38;40.36;96922.25;6248342;28;19928;-67
2022/06/15 04:39:47;;;;;;;;;;;;;;;19.64;39.45;96923.13;6248751;28;19921;-68
2022/06/15 04:42:50;;;;;;;;;;;;;;;19.82;39.36;96916.97;6248299;28;19920;-67
2022/06/15 04:45:54;;;;;;;;;;;;;;;20.58;37.86;96921.56;6248226;28;20075;-67
2022/06/15 04:48:55;;;;;;;;;;;;;;;23.13;33.37;96929.34;6248755;28;19921;-66
2022/06/15 04:51:59;;;;;;;;;;;;;;;26.31;29.44;96934.63;6248360;28;20375;-67
2022/06/15 04:55:03;;;;;;;;;;;;;;;29.76;26.42;96946.66;6248218;28;19921;-68
2022/06/15 04:58:06;;;;;;;;;;;;;;;32.91;23.38;96946.81;6247961;28;20015;-67
2022/06/15 05:01:11;;;;;;;;;;;;;;;35.46;20.87;96960.38;6248123;28;20285;-68
2022/06/15 05:04:15;;;;;;;;;;;;;;;37.78;18.84;96954.34;6248617;28;19927;-66
2022/06/15 05:07:19;;;;;;;;;;;;;;;40.08;18.09;96953.78;6247433;28;19924;-67
2022/06/15 05:10:24;;;;;;;;;;;;;;;42.65;17.17;96957.00;6247865;28;20346;-67
2022/06/15 05:13:25;;;;;;;;;;;;;;;45.09;15.64;96954.53;6247718;28;19931;-67
2022/06/15 05:16:27;;;;;;;;;;;;;;;46.89;14.63;96956.94;6247699;28;20335;-67
2022/06/15 05:19:29;;;;;;;;;;;;;;;47.85;12.67;96950.88;6248135;28;20409;-67
2022/06/15 05:22:33;;;;;;;;;;;;;;;48.68;12.60;96957.53;6247494;28;19924;-67
2022/06/15 05:25:37;;;;;;;;;;;;;;;49.58;11.02;96958.56;6246963;28;19920;-67
2022/06/15 05:28:41;;;;;;;;;;;;;;;50.02;9.16;96944.72;6247998;28;20328;-67
2022/06/15 05:31:43;;;;;;;;;;;;;;;51.37;10.19;96952.34;6247099;28;19925;-66
2022/06/15 05:34:48;;;;;;;;;;;;;;;52.29;9.01;96947.16;6247639;28;20023;-67
2022/06/15 05:37:54;;;;;;;;;;;;;;;51.88;7.66;96955.13;6247036;28;19925;-66
2022/06/15 05:40:55;;;;;;;;;;;;;;;51.12;8.63;96941.31;6247476;28;20545;-66
2022/06/15 05:47:08;;;;;;;;;;;;;;;51.62;8.04;96942.53;6247264;28;20019;-68
2022/06/15 05:50:14;;;;;;;;;;;;;;;51.93;5.69;96934.41;6246939;28;19996;-66
2022/06/15 05:53:19;;;;;;;;;;;;;;;52.81;7.47;96940.16;6246721;28;19921;-67
2022/06/15 05:56:23;;;;;;;;;;;;;;;53.39;7.34;96948.38;6246678;28;19924;-67
2022/06/15 05:59:30;;;;;;;;;;;;;;;54.19;5.80;96945.50;6246839;28;20435;-67
2022/06/15 06:02:32;;;;;;;;;;;;;;;55.35;6.48;96949.09;6246472;28;19921;-67
2022/06/15 06:05:38;;;;;;;;;;;;;;;55.56;5.11;96951.22;6246444;28;19924;-67
2022/06/15 06:08:43;;;;;;;;;;;;;;;54.61;5.77;96944.34;6246357;28;19921;-67
2022/06/15 06:11:45;;;;;;;;;;;;;;;54.66;4.96;96940.41;6246560;28;19927;-66
2022/06/15 06:14:51;;;;;;;;;;;;;;;55.39;4.45;96929.34;6246137;28;20015;-66
2022/06/15 06:17:52;;;;;;;;;;;;;;;56.92;4.33;96937.66;6246371;28;19966;-66
2022/06/15 06:20:58;;;;;;;;;;;;;;;57.05;4.71;96935.22;6246155;28;19924;-66
2022/06/15 06:24:05;;;;;;;;;;;;;;;56.35;4.29;96925.41;6246258;28;20054;-65
2022/06/15 06:27:08;;;;;;;;;;;;;;;56.06;4.91;96924.47;6246038;28;19928;-67
2022/06/15 06:30:10;;;;;;;;;;;;;;;56.85;4.82;96932.00;6261931;28;19916;-67
2022/06/15 06:33:12;;;;;;;;;;;;;;;57.17;4.23;96931.22;6246087;28;20357;-66
2022/06/15 06:36:22;;;;;;;;;;;;;;;57.55;2.67;96929.53;6246046;28;20012;-66
2022/06/15 06:39:28;;;;;;;;;;;;;;;58.04;2.89;96926.94;6245841;28;19924;-66
2022/06/15 06:42:29;;;;;;;;;;;;;;;58.30;2.36;96927.66;6246831;28;20418;-66
2022/06/15 06:45:30;;;;;;;;;;;;;;;58.69;3.82;96927.44;6246164;28;19921;-66
2022/06/15 06:48:34;;;;;;;;;;;;;;;59.35;3.87;96929.34;6246905;28;19920;-66
2022/06/15 06:51:40;;;;;;;;;;;;;;;59.66;3.06;96927.41;6259566;28;19925;-66
2022/06/15 06:54:44;;;;;;;;;;;;;;;60.06;3.85;96932.63;6275958;28;19988;-66
2022/06/15 06:57:47;;;;;;;;;;;;;;;59.18;3.25;96925.44;6277927;28;19948;-65
2022/06/15 07:00:50;;;;;;;;;;;;;;;58.14;4.05;96914.78;6257430;28;19921;-66
2022/06/15 07:03:52;;;;;;;;;;;;;;;57.53;3.21;96917.84;6251348;28;19948;-65
2022/06/15 07:06:57;;;;;;;;;;;;;;;57.02;3.69;96904.09;6250762;28;20304;-67
2022/06/15 07:10:01;;;;;;;;;;;;;;;56.98;2.98;96904.13;6250630;28;19921;-67
2022/06/15 07:13:04;;;;;;;;;;;;;;;57.21;2.60;96898.06;6250825;28;19921;-66
2022/06/15 07:16:11;;;;;;;;;;;;;;;57.45;3.73;96901.25;6249948;28;19929;-67
2022/06/15 07:19:15;;;;;;;;;;;;;;;57.66;2.46;96901.19;6250561;28;19921;-67
2022/06/15 07:22:16;;;;;;;;;;;;;;;57.96;3.40;96908.41;6248949;28;19983;-67
2022/06/15 07:25:17;;;;;;;;;;;;;;;58.05;3.51;96905.91;6250538;28;20403;-67
2022/06/15 07:28:19;;;;;;;;;;;;;;;58.51;3.23;96904.06;6250439;28;19921;-66
2022/06/15 07:31:24;;;;;;;;;;;;;;;57.48;3.76;96903.28;6250034;28;19916;-66
2022/06/15 07:34:28;;;;;;;;;;;;;;;57.06;3.31;96902.09;6250277;28;20419;-66
2022/06/15 07:37:31;;;;;;;;;;;;;;;58.05;3.33;96905.13;6249894;28;19921;-66
2022/06/15 07:40:34;;;;;;;;;;;;;;;55.97;3.47;96894.63;6250661;28;19921;-67
2022/06/15 07:43:36;;;;;;;;;;;;;;;55.52;3.03;96891.16;6250130;28;19924;-67
2022/06/15 07:46:41;;;;;;;;;;;;;;;56.55;3.59;96894.81;6249883;28;20300;-66
2022/06/15 07:49:55;;;;;;;;;;;;;;;57.22;3.57;96890.38;6249452;28;19920;-67
2022/06/15 07:52:57;;;;;;;;;;;;;;;57.00;3.47;96881.91;6250125;28;19925;-67
2022/06/15 07:56:04;;;;;;;;;;;;;;;57.00;3.18;96881.91;6249325;28;19928;-66
2022/06/15 07:59:08;;;;;;;;;;;;;;;56.98;3.65;96878.66;6249390;28;20087;-66
2022/06/15 08:02:16;;;;;;;;;;;;;;;57.21;3.43;96878.25;6249042;28;19978;-67
2022/06/15 08:05:20;;;;;;;;;;;;;;;57.22;2.68;96877.06;6249093;28;19979;-67
2022/06/15 08:08:23;;;;;;;;;;;;;;;57.52;3.33;96872.94;6248903;28;19921;-66
2022/06/15 08:11:27;;;;;;;;;;;;;;;57.51;2.88;96877.00;6248923;28;19917;-67
2022/06/15 08:14:34;;;;;;;;;;;;;;;57.78;2.42;96875.28;6248697;28;19933;-65
2022/06/15 08:17:44;;;;;;;;;;;;;;;57.14;2.59;96864.91;6249127;28;20377;-66
2022/06/15 08:20:58;;;;;;;;;;;;;;;56.63;2.35;96862.53;6248845;28;19920;-66
2022/06/15 08:24:03;;;;;;;;;;;;;;;56.43;2.52;96860.06;6231505;28;19924;-66
2022/06/15 08:27:06;;;;;;;;;;;;;;;56.64;3.01;96864.94;6249105;28;19924;-66
2022/06/15 08:30:10;;;;;;;;;;;;;;;55.94;3.68;96857.91;6248977;28;20008;-66
2022/06/15 08:33:13;;;;;;;;;;;;;;;55.92;3.59;96846.22;6248337;28;19928;-65
2022/06/15 08:36:16;;;;;;;;;;;;;;;56.28;2.88;96847.09;6248296;28;19921;-65
2022/06/15 08:39:19;;;;;;;;;;;;;;;56.93;2.94;96842.31;6248289;28;20272;-66
2022/06/15 08:42:32;;;;;;;;;;;;;;;57.21;2.77;96844.31;6248628;28;20389;-66
2022/06/15 08:45:41;;;;;;;;;;;;;;;56.80;2.87;96833.44;6248198;28;19925;-67
2022/06/15 08:48:47;;;;;;;;;;;;;;;56.81;2.90;96845.53;6247983;28;19921;-66
2022/06/15 08:51:56;;;;;;;;;;;;;;;56.40;3.19;96843.91;6248291;28;19920;-67
2022/06/15 08:55:19;;;;;;;;;;;;;;;54.52;3.23;96828.34;6248137;28;19921;-67
2022/06/15 08:58:39;;;;;;;;;;;;;;;53.76;3.50;96818.28;6247312;28;19921;-67
2022/06/15 09:01:46;;;;;;;;;;;;;;;54.46;3.65;96816.63;6248723;28;19931;-66
2022/06/15 09:05:07;;;;;;;;;;;;;;;53.95;3.70;96816.47;6248005;28;19921;-66
2022/06/15 09:08:19;;;;;;;;;;;;;;;53.01;4.08;96810.84;6247834;28;20011;-67
2022/06/15 09:11:38;;;;;;;;;;;;;;;52.58;3.99;96813.72;6247757;28;19921;-67
2022/06/15 09:15:05;;;;;;;;;;;;;;;52.14;4.20;96804.91;6247493;28;19924;-67
2022/06/15 09:18:12;;;;;;;;;;;;;;;52.23;4.32;96802.66;6246577;28;19944;-67
2022/06/15 09:21:31;;;;;;;;;;;;;;;52.54;4.13;96798.81;6247527;28;19921;-66
2022/06/15 09:24:38;;;;;;;;;;;;;;;51.72;4.53;96794.47;6247707;28;19921;-67
2022/06/15 09:27:54;;;;;;;;;;;;;;;51.20;4.61;96788.16;6246037;28;20304;-66
2022/06/15 09:31:05;;;;;;;;;;;;;;;51.14;4.66;96787.63;6247837;28;20402;-66
2022/06/15 09:34:13;;;;;;;;;;;;;;;50.65;4.77;96776.88;6246980;28;20367;-67
2022/06/15 09:37:19;;;;;;;;;;;;;;;50.42;4.96;96784.25;6246975;28;19925;-67
2022/06/15 09:40:29;;;;;;;;;;;;;;;50.48;5.03;96783.66;6246894;28;19928;-66
2022/06/15 09:43:52;;;;;;;;;;;;;;;49.73;5.49;96770.44;6245098;28;19927;-67
2022/06/15 09:46:59;;;;;;;;;;;;;;;48.37;6.02;96771.00;6246936;28;20070;-67
2022/06/15 09:50:21;;;;;;;;;;;;;;;47.86;5.95;96769.25;6246911;28;20325;-67
2022/06/15 09:53:45;;;;;;;;;;;;;;;47.55;6.34;96758.56;6246986;28;19928;-67
2022/06/15 09:56:50;;;;;;;;;;;;;;;47.11;5.97;96755.31;6245565;28;19921;-67
2022/06/15 09:59:54;;;;;;;;;;;;;;;46.62;6.67;96757.72;6247425;28;20376;-66
2022/06/15 10:02:59;;;;;;;;;;;;;;;45.12;7.02;96748.38;6246656;28;20396;-67
2022/06/15 10:06:23;;;;;;;;;;;;;;;44.60;7.62;96749.91;6246631;28;19920;-68
2022/06/15 10:09:28;;;;;;;;;;;;;;;45.82;6.63;96749.97;6247065;28;19959;-67
2022/06/15 10:15:58;;;;;;;;;;;;;;;46.53;6.40;96752.19;6246197;28;20347;-67
2022/06/15 10:19:08;;;;;;;;;;;;;;;45.30;7.00;96755.59;6246043;28;19925;-68
2022/06/15 10:22:20;;;;;;;;;;;;;;;44.62;7.47;96748.75;6245782;28;19921;-70
2022/06/15 10:25:25;;;;;;;;;;;;;;;45.24;7.00;96748.56;6245956;28;19921;-66
2022/06/15 10:28:33;;;;;;;;;;;;;;;45.00;7.19;96746.25;6245822;28;19925;-67
2022/06/15 10:31:37;;;;;;;;;;;;;;;44.76;7.35;96743.94;6245562;28;19921;-68
2022/06/15 10:34:47;;;;;;;;;;;;;;;44.66;7.56;96742.25;6245766;28;20299;-67
2022/06/15 10:37:53;;;;;;;;;;;;;;;44.70;7.67;96734.09;6245999;28;20262;-68
2022/06/15 10:44:25;;;;;;;;;;;;;;;44.92;7.65;96727.63;6244584;28;19921;-67
2022/06/15 10:47:38;;;;;;;;;;;;;;;44.81;7.56;96729.91;6245839;28;19921;-68
2022/06/15 10:50:51;;;;;;;;;;;;;;;44.27;7.92;96729.22;6245876;28;19921;-67
2022/06/15 10:54:13;;;;;;;;;;;;;;;44.13;8.00;96726.56;6245766;28;19921;-66
2022/06/15 11:04:27;;;;;;;;;;;;;;;40.90;10.41;96714.97;6245530;28;19921;-67
2022/06/15 11:07:33;;;;;;;;;;;;;;;40.71;10.18;96712.19;6245477;28;19921;-67
2022/06/15 11:10:38;;;;;;;;;;;;;;;40.96;10.14;96714.59;6244075;28;19925;-67
2022/06/15 11:13:49;;;;;;;;;;;;;;;41.00;9.85;96704.59;6245285;28;19928;-67
2022/06/15 11:20:33;;;;;;;;;;;;;;;40.43;10.56;96713.94;6245411;28;19920;-67
2022/06/15 11:23:57;;;;;;;;;;;;;;;39.87;11.13;96712.66;6245441;28;20395;-67
2022/06/15 11:27:08;;;;;;;;;;;;;;;39.70;10.93;96704.78;6244488;28;19964;-67
2022/06/15 11:30:21;;;;;;;;;;;;;;;39.88;10.82;96706.81;6245061;28;19921;-68
2022/06/15 11:33:24;;;;;;;;;;;;;;;39.83;10.92;96698.63;6244882;28;19921;-67
2022/06/15 11:36:28;;;;;;;;;;;;;;;39.77;11.10;96709.97;6245018;28;20400;-68
2022/06/15 11:39:37;;;;;;;;;;;;;;;39.69;10.84;96698.47;6245202;28;19921;-67
2022/06/15 11:42:41;;;;;;;;;;;;;;;39.40;11.45;96706.72;6249294;28;19921;-67
2022/06/15 11:46:03;;;;;;;;;;;;;;;38.58;11.68;96696.22;6249283;28;19983;-66
2022/06/15 11:49:12;;;;;;;;;;;;;;;37.71;12.79;96692.97;6249268;28;19921;-66
2022/06/15 11:52:48;;;;;;;;;;;;;;;36.36;13.35;96684.00;6249156;28;19921;-67
2022/06/15 11:56:13;;;;;;;;;;;;;;;36.00;13.61;96686.56;6247452;28;20384;-67
2022/06/15 11:59:26;;;;;;;;;;;;;;;35.44;13.98;96672.50;6249328;28;19920;-67
2022/06/15 12:02:45;;;;;;;;;;;;;;;35.64;14.05;96678.16;6249190;28;19921;-67
2022/06/15 12:05:57;;;;;;;;;;;;;;;35.14;14.36;96676.69;6248834;28;19925;-66
2022/06/15 12:09:29;;;;;;;;;;;;;;;35.21;14.40;96669.06;6248939;28;19921;-67
2022/06/15 12:12:50;;;;;;;;;;;;;;;35.53;14.18;96669.03;6247839;28;19921;-67
2022/06/15 12:16:03;;;;;;;;;;;;;;;35.35;14.32;96658.50;6246903;28;19952;-67
2022/06/15 12:19:04;;;;;;;;;;;;;;;35.34;14.69;96672.47;6249628;28;19920;-67
2022/06/15 12:22:21;;;;;;;;;;;;;;;35.63;14.24;96671.03;6248827;28;20436;-67
2022/06/15 12:25:32;;;;;;;;;;;;;;;35.70;14.18;96668.91;6248314;28;19921;-67
2022/06/15 12:28:55;;;;;;;;;;;;;;;35.44;14.38;96672.50;6248736;28;19921;-68
2022/06/15 12:32:28;;;;;;;;;;;;;;;35.00;14.71;96669.97;6247798;28;19932;-67
2022/06/15 12:35:32;;;;;;;;;;;;;;;34.26;15.40;96663.19;6247916;28;19921;-67
2022/06/15 12:38:51;;;;;;;;;;;;;;;34.18;15.14;96667.19;6248026;28;19921;-68
2022/06/15 12:42:10;;;;;;;;;;;;;;;34.26;15.16;96667.84;6248267;28;19921;-67
2022/06/15 12:45:28;;;;;;;;;;;;;;;34.02;15.17;96662.59;6247195;28;20017;-68
2022/06/15 12:48:45;;;;;;;;;;;;;;;33.89;15.07;96663.81;6248197;28;20304;-67
2022/06/15 12:51:48;;;;;;;;;;;;;;;33.80;15.19;96668.06;6246940;28;20304;-68
2022/06/15 12:55:08;;;;;;;;;;;;;;;33.44;15.68;96662.06;6247558;28;19927;-67
2022/06/15 12:58:12;;;;;;;;;;;;;;;32.83;16.74;96655.59;6247741;28;20283;-67
2022/06/15 13:01:16;;;;;;;;;;;;;;;32.24;16.81;96649.56;6248154;28;19921;-67
2022/06/15 13:04:20;;;;;;;;;;;;;;;31.62;16.86;96651.03;6247802;28;19921;-72
2022/06/15 13:07:23;;;;;;;;;;;;;;;31.42;17.20;96650.53;6248034;28;20406;-70
2022/06/15 13:10:32;;;;;;;;;;;;;;;31.10;17.41;96643.53;6247679;28;19921;-70
2022/06/15 13:13:38;;;;;;;;;;;;;;;30.91;17.92;96641.16;6247570;28;20389;-69
2022/06/15 13:16:42;;;;;;;;;;;;;;;30.72;18.13;96643.94;6247142;28;20423;-72
2022/06/15 13:19:48;;;;;;;;;;;;;;;30.57;18.26;96649.81;6247512;28;19921;-72
2022/06/15 13:22:49;;;;;;;;;;;;;;;30.64;17.90;96641.56;6247451;28;19917;-73
2022/06/15 13:25:59;;;;;;;;;;;;;;;31.03;17.94;96636.59;6247350;28;20388;-73
2022/06/15 13:29:00;;;;;;;;;;;;;;;31.05;18.09;96646.13;6247295;28;19917;-72
2022/06/15 13:32:05;;;;;;;;;;;;;;;30.74;18.33;96641.78;6247248;28;20230;-72
2022/06/15 13:35:23;;;;;;;;;;;;;;;30.45;18.12;96639.97;6246861;28;19924;-70
2022/06/15 13:38:26;;;;;;;;;;;;;;;30.30;18.41;96641.22;6247249;28;20407;-68
2022/06/15 13:41:29;;;;;;;;;;;;;;;30.21;18.31;96631.72;6246295;28;19972;-67
2022/06/15 13:44:47;;;;;;;;;;;;;;;30.16;18.55;96645.13;6246905;28;19944;-67
2022/06/15 13:47:54;;;;;;;;;;;;;;;30.05;18.54;96645.91;6246237;28;20311;-67
2022/06/15 13:51:01;;;;;;;;;;;;;;;29.94;18.72;96652.91;6246611;28;19925;-67
2022/06/15 13:54:02;;;;;;;;;;;;;;;29.80;18.68;96644.09;6246775;28;19971;-66
2022/06/15 13:57:04;;;;;;;;;;;;;;;29.69;18.82;96636.72;6246133;28;20414;-67
2022/06/15 14:00:25;;;;;;;;;;;;;;;29.62;18.62;96647.63;6246356;28;19932;-68
2022/06/15 14:03:46;;;;;;;;;;;;;;;29.69;18.87;96636.72;6246003;28;19917;-67
2022/06/15 14:07:06;;;;;;;;;;;;;;;29.63;18.79;96648.47;6246401;28;19925;-68
2022/06/15 14:10:25;;;;;;;;;;;;;;;29.53;19.11;96632.72;6246483;28;20438;-67
2022/06/15 14:13:32;;;;;;;;;;;;;;;29.38;19.45;96643.91;6246668;28;19928;-68
2022/06/15 14:17:02;;;;;;;;;;;;;;;29.33;20.07;96643.78;6246462;28;19921;-68
2022/06/15 14:20:17;;;;;;;;;;;;;;;29.03;20.37;96638.22;6246018;28;19921;-68
2022/06/15 14:23:30;;;;;;;;;;;;;;;28.83;20.05;96638.34;6246535;28;19921;-67
2022/06/15 14:26:43;;;;;;;;;;;;;;;28.68;20.50;96630.56;6244400;28;19920;-68
2022/06/15 14:29:46;;;;;;;;;;;;;;;28.57;20.78;96645.63;6246545;28;19920;-67
2022/06/15 14:32:59;;;;;;;;;;;;;;;28.46;20.74;96635.50;6245595;28;19991;-67
2022/06/15 14:36:08;;;;;;;;;;;;;;;28.31;20.66;96640.31;6245639;28;20011;-68
2022/06/15 14:39:16;;;;;;;;;;;;;;;28.28;20.86;96641.63;6245715;28;19921;-68
2022/06/15 14:42:54;;;;;;;;;;;;;;;28.12;21.01;96640.22;6246248;28;20375;-67
2022/06/15 14:45:54;;;;;;;;;;;;;;;28.04;21.03;96640.47;6245504;28;19921;-68
2022/06/15 14:49:00;;;;;;;;;;;;;;;27.84;21.19;96645.97;6245461;28;20395;-66
2022/06/15 14:52:10;;;;;;;;;;;;;;;27.75;21.18;96642.66;6245565;28;19944;-67
2022/06/15 14:55:19;;;;;;;;;;;;;;;27.70;21.66;96647.03;6245734;28;19921;-67
2022/06/15 14:58:23;;;;;;;;;;;;;;;27.65;22.02;96647.66;6244346;28;19921;-67
2022/06/15 15:01:29;;;;;;;;;;;;;;;27.63;23.10;96648.91;6245455;28;19921;-67
2022/06/15 15:04:32;;;;;;;;;;;;;;;27.49;23.58;96648.16;6245393;28;20016;-67
2022/06/15 15:11:05;;;;;;;;;;;;;;;27.35;24.53;96641.94;6245279;28;19928;-67
2022/06/15 15:14:15;;;;;;;;;;;;;;;27.03;24.42;96649.81;6245172;28;19921;-68
2022/06/15 15:17:18;;;;;;;;;;;;;;;26.84;24.85;96648.81;6249357;28;19921;-68
2022/06/15 15:20:28;;;;;;;;;;;;;;;26.78;25.30;96655.03;6250622;28;19928;-68
2022/06/15 15:23:40;;;;;;;;;;;;;;;26.58;25.62;96656.88;6250062;28;19921;-67
2022/06/15 15:27:00;;;;;;;;;;;;;;;26.43;26.55;96659.72;6250782;28;20383;-68
2022/06/15 15:40:19;;;;;;;;;;;;;;;25.47;27.16;96665.94;6249576;28;20443;-67
2022/06/15 15:43:24;;;;;;;;;;;;;;;25.32;27.56;96667.94;6249294;28;19920;-68
2022/06/15 15:46:28;;;;;;;;;;;;;;;25.22;28.11;96672.81;6249449;28;19929;-67
2022/06/15 15:49:30;;;;;;;;;;;;;;;25.09;28.89;96674.38;6249414;28;19921;-68
2022/06/15 15:52:34;;;;;;;;;;;;;;;24.84;28.89;96673.13;6249230;28;19924;-67
2022/06/15 15:55:36;;;;;;;;;;;;;;;24.66;29.07;96673.59;6249816;28;20011;-68
2022/06/15 15:58:37;;;;;;;;;;;;;;;24.57;29.50;96678.28;6249799;28;19944;-67
2022/06/15 16:01:41;;;;;;;;;;;;;;;24.40;29.59;96674.97;6249189;28;20015;-67
2022/06/15 16:04:45;;;;;;;;;;;;;;;24.22;29.92;96676.44;6248996;28;20385;-68
2022/06/15 16:07:52;;;;;;;;;;;;;;;24.09;30.17;96675.25;6248145;28;19969;-67
2022/06/15 16:10:57;;;;;;;;;;;;;;;24.03;30.91;96684.06;6249072;28;19925;-67
2022/06/15 16:14:03;;;;;;;;;;;;;;;23.89;31.24;96684.91;6248664;28;19928;-67
2022/06/15 16:17:06;;;;;;;;;;;;;;;23.74;31.35;96685.78;6249368;28;19928;-68
2022/06/15 16:20:19;;;;;;;;;;;;;;;23.65;31.82;96686.03;6248666;28;19921;-70
2022/06/15 16:23:25;;;;;;;;;;;;;;;23.54;32.17;96684.66;6248564;28;20015;-68
2022/06/15 16:26:29;;;;;;;;;;;;;;;23.37;32.29;96681.31;6248783;28;20380;-68
2022/06/15 16:29:33;;;;;;;;;;;;;;;23.23;32.63;96688.31;6248478;28;19921;-68
2022/06/15 16:32:37;;;;;;;;;;;;;;;23.03;32.62;96684.50;6248864;28;19931;-67
2022/06/15 16:35:41;;;;;;;;;;;;;;;22.98;33.16;96689.56;6248323;28;20380;-67
2022/06/15 16:38:48;;;;;;;;;;;;;;;22.86;33.45;96703.41;6248168;28;19952;-67
2022/06/15 16:41:49;;;;;;;;;;;;;;;22.76;33.54;96700.16;6247375;28;19927;-67
2022/06/15 16:44:53;;;;;;;;;;;;;;;22.61;33.84;96704.59;6248488;28;19921;-67
2022/06/15 16:47:54;;;;;;;;;;;;;;;22.57;33.68;96712.19;6248786;28;19943;-68
2022/06/15 16:50:56;;;;;;;;;;;;;;;22.48;34.17;96705.22;6248200;28;19921;-67
2022/06/15 16:54:02;;;;;;;;;;;;;;;22.27;34.17;96713.88;6248274;28;20467;-68